Map

Track Data

SID SEASON NUMBER BASIN SUBBASIN NAME ISO_TIME NATURE LAT LON WMO_WIND WMO_PRES WMO_AGENCY TRACK_TYPE DIST2LAND LANDFALL IFLAG USA_AGENCY USA_ATCF_ID USA_LAT USA_LON USA_RECORD USA_STATUS USA_WIND USA_PRES USA_SSHS USA_R34_NE USA_R34_SE USA_R34_SW USA_R34_NW USA_R50_NE USA_R50_SE USA_R50_SW USA_R50_NW USA_R64_NE USA_R64_SE USA_R64_SW USA_R64_NW USA_POCI USA_ROCI USA_RMW USA_EYE TOKYO_LAT TOKYO_LON TOKYO_GRADE TOKYO_WIND TOKYO_PRES TOKYO_R50_DIR TOKYO_R50_LONG TOKYO_R50_SHORT TOKYO_R30_DIR TOKYO_R30_LONG TOKYO_R30_SHORT TOKYO_LAND CMA_LAT CMA_LON CMA_CAT CMA_WIND CMA_PRES HKO_LAT HKO_LON HKO_CAT HKO_WIND HKO_PRES NEWDELHI_LAT NEWDELHI_LON NEWDELHI_GRADE NEWDELHI_WIND NEWDELHI_PRES NEWDELHI_CI NEWDELHI_DP NEWDELHI_POCI REUNION_LAT REUNION_LON REUNION_TYPE REUNION_WIND REUNION_PRES REUNION_TNUM REUNION_CI REUNION_RMW REUNION_R34_NE REUNION_R34_SE REUNION_R34_SW REUNION_R34_NW REUNION_R50_NE REUNION_R50_SE REUNION_R50_SW REUNION_R50_NW REUNION_R64_NE REUNION_R64_SE REUNION_R64_SW REUNION_R64_NW BOM_LAT BOM_LON BOM_TYPE BOM_WIND BOM_PRES BOM_TNUM BOM_CI BOM_RMW BOM_R34_NE BOM_R34_SE BOM_R34_SW BOM_R34_NW BOM_R50_NE BOM_R50_SE BOM_R50_SW BOM_R50_NW BOM_R64_NE BOM_R64_SE BOM_R64_SW BOM_R64_NW BOM_ROCI BOM_POCI BOM_EYE BOM_POS_METHOD BOM_PRES_METHOD NADI_LAT NADI_LON NADI_CAT NADI_WIND NADI_PRES WELLINGTON_LAT WELLINGTON_LON WELLINGTON_WIND WELLINGTON_PRES DS824_LAT DS824_LON DS824_STAGE DS824_WIND DS824_PRES TD9636_LAT TD9636_LON TD9636_STAGE TD9636_WIND TD9636_PRES TD9635_LAT TD9635_LON TD9635_WIND TD9635_PRES TD9635_ROCI NEUMANN_LAT NEUMANN_LON NEUMANN_CLASS NEUMANN_WIND NEUMANN_PRES MLC_LAT MLC_LON MLC_CLASS MLC_WIND MLC_PRES USA_GUST BOM_GUST BOM_GUST_PER REUNION_GUST REUNION_GUST_PER USA_SEAHGT USA_SEARAD_NE USA_SEARAD_SE USA_SEARAD_SW USA_SEARAD_NW STORM_SPEED STORM_DIR
1923011S20115 1923 3 SI WA NOT_NAMED 1923-01-11 06:00:00 NR -20.4000 115.200 main 106 106 _____O________ -1 -20.4000 115.200 99 9.90000 2 302
1923011S20115 1923 3 SI WA NOT_NAMED 1923-01-11 09:00:00 NR -20.3584 115.122 main 114 114 _____P________ -1 -20.3584 115.122 99 2 297
1923011S20115 1923 3 SI WA NOT_NAMED 1923-01-11 12:00:00 NR -20.3244 115.040 main 129 129 _____P________ -1 -20.3244 115.040 99 2 288
1923011S20115 1923 3 SI WA NOT_NAMED 1923-01-11 15:00:00 NR -20.3054 114.952 main 129 129 _____P________ -1 -20.3054 114.952 99 2 275
1923011S20115 1923 3 SI WA NOT_NAMED 1923-01-11 18:00:00 NR -20.3090 114.854 main 137 137 _____P________ -1 -20.3090 114.854 99 2 259
1923011S20115 1923 3 SI WA NOT_NAMED 1923-01-11 21:00:00 NR -20.3428 114.744 main 152 143 _____P________ -1 -20.3428 114.744 99 2 245
1923011S20115 1923 3 SI WA NOT_NAMED 1923-01-12 00:00:00 NR -20.4142 114.617 main 147 137 _____P________ -1 -20.4142 114.617 99 3 234
1923011S20115 1923 3 SI WA NOT_NAMED 1923-01-12 03:00:00 NR -20.5308 114.470 main 140 126 _____P________ -1 -20.5308 114.470 99 4 226
1923011S20115 1923 3 SI WA NOT_NAMED 1923-01-12 06:00:00 NR -20.7000 114.300 main 126 108 _____O________ -1 -20.7000 114.300 99 9.90000 5 221
1923011S20115 1923 3 SI WA NOT_NAMED 1923-01-12 09:00:00 NR -20.9269 114.105 main 111 78 _____P________ -1 -20.9269 114.105 99 6 217
1923011S20115 1923 3 SI WA NOT_NAMED 1923-01-12 12:00:00 NR -21.2068 113.891 main 78 54 _____P________ -1 -21.2068 113.891 99 7 214
1923011S20115 1923 3 SI WA NOT_NAMED 1923-01-12 15:00:00 NR -21.5325 113.664 main 54 45 _____P________ -1 -21.5325 113.664 99 8 212
1923011S20115 1923 3 SI WA NOT_NAMED 1923-01-12 18:00:00 NR -21.8968 113.432 main 56 52 _____P________ -1 -21.8968 113.432 99 9 209
1923011S20115 1923 3 SI WA NOT_NAMED 1923-01-12 21:00:00 NR -22.2928 113.202 main 53 46 _____P________ -1 -22.2928 113.202 99 9 207
1923011S20115 1923 3 SI WA NOT_NAMED 1923-01-13 00:00:00 NR -22.7132 112.981 main 62 62 _____P________ -1 -22.7132 112.981 99 9 204
1923011S20115 1923 3 SI WA NOT_NAMED 1923-01-13 03:00:00 NR -23.1513 112.778 main 102 92 _____P________ -1 -23.1513 112.778 99 10 202
1923011S20115 1923 3 SI WA NOT_NAMED 1923-01-13 06:00:00 NR -23.6000 112.600 main 97 94 _____O________ -1 -23.6000 112.600 99 9.90000 9 199
1923011S20115 1923 3 SI WA NOT_NAMED 1923-01-13 09:00:00 NR -24.0193 112.449 main 110 101 _____P________ -1 -24.0193 112.449 99 9 197
1923011S20115 1923 3 SI WA NOT_NAMED 1923-01-13 12:00:00 NR -24.4548 112.319 main 111 111 _____P________ -1 -24.4548 112.319 99 9 194
1923011S20115 1923 3 SI WA NOT_NAMED 1923-01-13 15:00:00 NR -24.9047 112.209 main 133 132 _____P________ -1 -24.9047 112.209 99 9 191
1923011S20115 1923 3 SI WA NOT_NAMED 1923-01-13 18:00:00 NR -25.3670 112.122 main 134 124 _____P________ -1 -25.3670 112.122 99 10 188
1923011S20115 1923 3 SI WA NOT_NAMED 1923-01-13 21:00:00 NR -25.8396 112.056 main 124 121 _____P________ -1 -25.8396 112.056 99 10 186
1923011S20115 1923 3 SI WA NOT_NAMED 1923-01-14 00:00:00 NR -26.3207 112.014 main 129 129 _____P________ -1 -26.3207 112.014 99 10 183
1923011S20115 1923 3 SI WA NOT_NAMED 1923-01-14 03:00:00 NR -26.8081 111.995 main 140 140 _____P________ -1 -26.8081 111.995 99 10 181
1923011S20115 1923 3 SI WA NOT_NAMED 1923-01-14 06:00:00 NR -27.3000 112.000 main 170 170 _____O________ -1 -27.3000 112.000 99 9.90000 10 0
1923011S20115 1923 3 SI WA NOT_NAMED 1923-01-14 09:00:00 NR -27.8430 112.014 main 198 198 _____P________ -1 -27.8430 112.014 99 11 178
1923011S20115 1923 3 SI WA NOT_NAMED 1923-01-14 12:00:00 NR -28.3996 112.053 main 207 207 _____P________ -1 -28.3996 112.053 99 11 176
1923011S20115 1923 3 SI WA NOT_NAMED 1923-01-14 15:00:00 NR -28.9568 112.117 main 228 228 _____P________ -1 -28.9568 112.117 99 11 173
1923011S20115 1923 3 SI WA NOT_NAMED 1923-01-14 18:00:00 NR -29.5017 112.202 main 245 245 _____P________ -1 -29.5017 112.202 99 11 171
1923011S20115 1923 3 SI WA NOT_NAMED 1923-01-14 21:00:00 NR -30.0214 112.306 main 259 250 _____P________ -1 -30.0214 112.306 99 10 169
1923011S20115 1923 3 SI WA NOT_NAMED 1923-01-15 00:00:00 NR -30.5030 112.425 main 255 242 _____P________ -1 -30.5030 112.425 99 9 167
1923011S20115 1923 3 SI WA NOT_NAMED 1923-01-15 03:00:00 NR -30.9335 112.558 main 242 241 _____P________ -1 -30.9335 112.558 99 8 164
1923011S20115 1923 3 SI WA NOT_NAMED 1923-01-15 06:00:00 NR -31.3000 112.700 main 245 240 _____O________ -1 -31.3000 112.700 99 9.90000 7 159
1923011S20115 1923 3 SI WA NOT_NAMED 1923-01-15 09:00:00 NR -31.5817 112.843 main 249 235 _____P________ -1 -31.5817 112.843 99 6 153
1923011S20115 1923 3 SI WA NOT_NAMED 1923-01-15 12:00:00 NR -31.8022 112.999 main 240 230 _____P________ -1 -31.8022 112.999 99 5 145
1923011S20115 1923 3 SI WA NOT_NAMED 1923-01-15 15:00:00 NR -31.9698 113.165 main 230 222 _____P________ -1 -31.9698 113.165 99 4 135
1923011S20115 1923 3 SI WA NOT_NAMED 1923-01-15 18:00:00 NR -32.0927 113.336 main 225 204 _____P________ -1 -32.0927 113.336 99 4 126
1923011S20115 1923 3 SI WA NOT_NAMED 1923-01-15 21:00:00 NR -32.1789 113.509 main 204 186 _____P________ -1 -32.1789 113.509 99 3 116
1923011S20115 1923 3 SI WA NOT_NAMED 1923-01-16 00:00:00 NR -32.2367 113.680 main 186 174 _____P________ -1 -32.2367 113.680 99 3 109
1923011S20115 1923 3 SI WA NOT_NAMED 1923-01-16 03:00:00 NR -32.2744 113.845 main 174 156 _____P________ -1 -32.2744 113.845 99 3 103
1923011S20115 1923 3 SI WA NOT_NAMED 1923-01-16 06:00:00 NR -32.3000 114.000 main 156 147 _____O________ -1 -32.3000 114.000 99 9.90000 3 101
1923011S20115 1923 3 SI WA NOT_NAMED 1923-01-16 09:00:00 NR -32.3206 114.142 main 147 129 _____P________ -1 -32.3206 114.142 99 2 99
1923011S20115 1923 3 SI WA NOT_NAMED 1923-01-16 12:00:00 NR -32.3380 114.273 main 129 117 _____P________ -1 -32.3380 114.273 99 2 98
1923011S20115 1923 3 SI WA NOT_NAMED 1923-01-16 15:00:00 NR -32.3526 114.393 main 117 108 _____P________ -1 -32.3526 114.393 99 2 98
1923011S20115 1923 3 SI WA NOT_NAMED 1923-01-16 18:00:00 NR -32.3649 114.505 main 108 99 _____P________ -1 -32.3649 114.505 99 2 97
1923011S20115 1923 3 SI WA NOT_NAMED 1923-01-16 21:00:00 NR -32.3753 114.609 main 99 90 _____P________ -1 -32.3753 114.609 99 2 96
1923011S20115 1923 3 SI WA NOT_NAMED 1923-01-17 00:00:00 NR -32.3843 114.709 main 90 81 _____P________ -1 -32.3843 114.709 99 2 96
1923011S20115 1923 3 SI WA NOT_NAMED 1923-01-17 03:00:00 NR -32.3924 114.805 main 81 73 _____P________ -1 -32.3924 114.805 99 2 96
1923011S20115 1923 3 SI WA NOT_NAMED 1923-01-17 06:00:00 NR -32.4000 114.900 main 73 _____O________ -1 -32.4000 114.900 99 9.90000 2 95

About IBTrACS Database

This database is a web-friendly format of International Best Track Archive for Climate Stewardship (IBTrACS), a global best track data archive curated by NOAA dating back to 1842.

Updated: 2021-10-21